sensor_id;sensor_type;location;lat;lon;timestamp;P1;durP1;ratioP1;P2;durP2;ratioP2
71513;SDS011;59335;46.652;21.272;2022-12-29T00:00:52;14.30;;;8.70;;
71513;SDS011;59335;46.652;21.272;2022-12-29T00:03:54;15.05;;;8.80;;
71513;SDS011;59335;46.652;21.272;2022-12-29T00:06:57;12.93;;;8.30;;
71513;SDS011;59335;46.652;21.272;2022-12-29T00:10:00;13.52;;;7.93;;
71513;SDS011;59335;46.652;21.272;2022-12-29T00:13:03;12.38;;;8.05;;
71513;SDS011;59335;46.652;21.272;2022-12-29T00:16:25;12.98;;;8.07;;
71513;SDS011;59335;46.652;21.272;2022-12-29T00:19:30;12.60;;;8.15;;
71513;SDS011;59335;46.652;21.272;2022-12-29T00:22:51;11.77;;;7.50;;
71513;SDS011;59335;46.652;21.272;2022-12-29T00:26:13;14.27;;;8.18;;
71513;SDS011;59335;46.652;21.272;2022-12-29T00:29:40;12.38;;;8.35;;
71513;SDS011;59335;46.652;21.272;2022-12-29T00:33:18;12.95;;;7.40;;
71513;SDS011;59335;46.652;21.272;2022-12-29T00:36:40;11.93;;;8.30;;
71513;SDS011;59335;46.652;21.272;2022-12-29T00:39:46;11.80;;;7.63;;
71513;SDS011;59335;46.652;21.272;2022-12-29T00:43:08;11.38;;;7.07;;
71513;SDS011;59335;46.652;21.272;2022-12-29T00:46:29;11.57;;;7.93;;
71513;SDS011;59335;46.652;21.272;2022-12-29T00:49:32;12.43;;;7.22;;
71513;SDS011;59335;46.652;21.272;2022-12-29T00:52:35;12.07;;;8.02;;
71513;SDS011;59335;46.652;21.272;2022-12-29T00:55:38;13.07;;;7.90;;
71513;SDS011;59335;46.652;21.272;2022-12-29T00:58:42;13.32;;;7.47;;
71513;SDS011;59335;46.652;21.272;2022-12-29T01:01:46;11.25;;;7.40;;
71513;SDS011;59335;46.652;21.272;2022-12-29T01:04:50;12.18;;;7.63;;
71513;SDS011;59335;46.652;21.272;2022-12-29T01:07:53;11.75;;;7.47;;
71513;SDS011;59335;46.652;21.272;2022-12-29T01:11:02;11.13;;;7.40;;
71513;SDS011;59335;46.652;21.272;2022-12-29T01:14:08;12.00;;;7.40;;
71513;SDS011;59335;46.652;21.272;2022-12-29T01:17:11;11.60;;;7.35;;
71513;SDS011;59335;46.652;21.272;2022-12-29T01:20:14;13.25;;;7.60;;
71513;SDS011;59335;46.652;21.272;2022-12-29T01:23:17;11.55;;;7.65;;
71513;SDS011;59335;46.652;21.272;2022-12-29T01:26:20;12.00;;;7.10;;
71513;SDS011;59335;46.652;21.272;2022-12-29T01:29:22;10.48;;;7.00;;
71513;SDS011;59335;46.652;21.272;2022-12-29T01:32:25;10.70;;;7.05;;
71513;SDS011;59335;46.652;21.272;2022-12-29T01:35:28;12.70;;;7.18;;
71513;SDS011;59335;46.652;21.272;2022-12-29T01:38:32;10.93;;;7.22;;
71513;SDS011;59335;46.652;21.272;2022-12-29T01:41:36;11.60;;;6.90;;
71513;SDS011;59335;46.652;21.272;2022-12-29T01:44:49;11.82;;;7.10;;
71513;SDS011;59335;46.652;21.272;2022-12-29T01:48:03;10.57;;;7.00;;
71513;SDS011;59335;46.652;21.272;2022-12-29T01:51:07;11.52;;;7.07;;
71513;SDS011;59335;46.652;21.272;2022-12-29T01:54:14;10.23;;;6.55;;
71513;SDS011;59335;46.652;21.272;2022-12-29T01:57:24;11.57;;;7.00;;
71513;SDS011;59335;46.652;21.272;2022-12-29T02:00:30;11.98;;;6.80;;
71513;SDS011;59335;46.652;21.272;2022-12-29T02:03:32;12.45;;;7.40;;
71513;SDS011;59335;46.652;21.272;2022-12-29T02:06:39;10.02;;;6.50;;
71513;SDS011;59335;46.652;21.272;2022-12-29T02:09:47;9.98;;;6.70;;
71513;SDS011;59335;46.652;21.272;2022-12-29T02:12:51;10.37;;;6.67;;
71513;SDS011;59335;46.652;21.272;2022-12-29T02:39:57;9.90;;;6.05;;
71513;SDS011;59335;46.652;21.272;2022-12-29T02:46:33;9.77;;;6.20;;
71513;SDS011;59335;46.652;21.272;2022-12-29T02:52:58;11.07;;;6.43;;
71513;SDS011;59335;46.652;21.272;2022-12-29T02:56:03;11.20;;;6.82;;
71513;SDS011;59335;46.652;21.272;2022-12-29T02:59:06;11.65;;;6.75;;
71513;SDS011;59335;46.652;21.272;2022-12-29T03:16:11;9.85;;;5.80;;
71513;SDS011;59335;46.652;21.272;2022-12-29T03:19:24;10.23;;;6.13;;
71513;SDS011;59335;46.652;21.272;2022-12-29T03:22:31;9.93;;;6.13;;
71513;SDS011;59335;46.652;21.272;2022-12-29T03:25:44;10.13;;;5.70;;
71513;SDS011;59335;46.652;21.272;2022-12-29T03:28:53;9.00;;;5.60;;
71513;SDS011;59335;46.652;21.272;2022-12-29T03:32:01;10.05;;;5.85;;
71513;SDS011;59335;46.652;21.272;2022-12-29T03:35:06;9.57;;;5.60;;
71513;SDS011;59335;46.652;21.272;2022-12-29T03:38:17;9.65;;;5.50;;
71513;SDS011;59335;46.652;21.272;2022-12-29T03:41:24;9.48;;;5.68;;
71513;SDS011;59335;46.652;21.272;2022-12-29T03:44:35;9.50;;;5.63;;
71513;SDS011;59335;46.652;21.272;2022-12-29T03:47:39;9.48;;;5.63;;
71513;SDS011;59335;46.652;21.272;2022-12-29T03:50:42;9.90;;;5.80;;
71513;SDS011;59335;46.652;21.272;2022-12-29T03:53:45;10.80;;;5.70;;
71513;SDS011;59335;46.652;21.272;2022-12-29T03:56:49;9.35;;;5.75;;
71513;SDS011;59335;46.652;21.272;2022-12-29T03:59:58;10.27;;;5.43;;
71513;SDS011;59335;46.652;21.272;2022-12-29T04:03:03;9.50;;;5.22;;
71513;SDS011;59335;46.652;21.272;2022-12-29T04:06:06;9.40;;;5.87;;
71513;SDS011;59335;46.652;21.272;2022-12-29T04:09:18;8.50;;;5.20;;
71513;SDS011;59335;46.652;21.272;2022-12-29T04:12:23;9.88;;;5.85;;
71513;SDS011;59335;46.652;21.272;2022-12-29T04:15:26;9.82;;;5.45;;
71513;SDS011;59335;46.652;21.272;2022-12-29T04:18:29;9.05;;;5.60;;
71513;SDS011;59335;46.652;21.272;2022-12-29T04:21:31;8.70;;;5.23;;
71513;SDS011;59335;46.652;21.272;2022-12-29T04:24:34;8.82;;;5.13;;
71513;SDS011;59335;46.652;21.272;2022-12-29T04:27:37;9.55;;;5.50;;
71513;SDS011;59335;46.652;21.272;2022-12-29T04:31:08;8.77;;;5.32;;
71513;SDS011;59335;46.652;21.272;2022-12-29T04:34:14;7.68;;;4.85;;
71513;SDS011;59335;46.652;21.272;2022-12-29T04:37:21;9.60;;;5.53;;
71513;SDS011;59335;46.652;21.272;2022-12-29T04:40:24;9.32;;;5.53;;
71513;SDS011;59335;46.652;21.272;2022-12-29T04:43:27;9.77;;;5.13;;
71513;SDS011;59335;46.652;21.272;2022-12-29T04:46:53;8.13;;;4.90;;
71513;SDS011;59335;46.652;21.272;2022-12-29T04:50:16;8.20;;;4.65;;
71513;SDS011;59335;46.652;21.272;2022-12-29T04:53:27;9.90;;;5.10;;
71513;SDS011;59335;46.652;21.272;2022-12-29T04:56:32;9.60;;;5.47;;
71513;SDS011;59335;46.652;21.272;2022-12-29T04:59:35;8.52;;;5.10;;
71513;SDS011;59335;46.652;21.272;2022-12-29T05:02:39;10.00;;;5.25;;
71513;SDS011;59335;46.652;21.272;2022-12-29T05:05:42;8.50;;;5.20;;
71513;SDS011;59335;46.652;21.272;2022-12-29T05:08:45;8.10;;;4.87;;
71513;SDS011;59335;46.652;21.272;2022-12-29T05:11:48;9.23;;;5.47;;
71513;SDS011;59335;46.652;21.272;2022-12-29T05:14:51;8.23;;;5.07;;
71513;SDS011;59335;46.652;21.272;2022-12-29T05:17:54;8.88;;;5.22;;
71513;SDS011;59335;46.652;21.272;2022-12-29T05:20:56;8.15;;;5.22;;
71513;SDS011;59335;46.652;21.272;2022-12-29T05:23:59;8.73;;;4.93;;
71513;SDS011;59335;46.652;21.272;2022-12-29T05:27:03;8.65;;;4.70;;
71513;SDS011;59335;46.652;21.272;2022-12-29T05:30:23;9.23;;;5.15;;
71513;SDS011;59335;46.652;21.272;2022-12-29T05:33:25;8.93;;;5.32;;
71513;SDS011;59335;46.652;21.272;2022-12-29T05:36:28;8.65;;;4.97;;
71513;SDS011;59335;46.652;21.272;2022-12-29T05:39:38;8.77;;;4.53;;
71513;SDS011;59335;46.652;21.272;2022-12-29T05:42:43;8.15;;;4.97;;
71513;SDS011;59335;46.652;21.272;2022-12-29T05:46:12;8.32;;;5.13;;
71513;SDS011;59335;46.652;21.272;2022-12-29T05:49:32;8.45;;;4.70;;
71513;SDS011;59335;46.652;21.272;2022-12-29T05:52:55;7.88;;;4.60;;
71513;SDS011;59335;46.652;21.272;2022-12-29T05:55:58;8.70;;;4.87;;
71513;SDS011;59335;46.652;21.272;2022-12-29T05:59:01;8.52;;;5.10;;
71513;SDS011;59335;46.652;21.272;2022-12-29T06:02:04;8.95;;;4.60;;
71513;SDS011;59335;46.652;21.272;2022-12-29T06:05:07;8.75;;;4.93;;
71513;SDS011;59335;46.652;21.272;2022-12-29T06:08:12;8.77;;;5.05;;
71513;SDS011;59335;46.652;21.272;2022-12-29T06:11:15;8.73;;;5.03;;
71513;SDS011;59335;46.652;21.272;2022-12-29T06:14:24;8.45;;;4.85;;
71513;SDS011;59335;46.652;21.272;2022-12-29T06:17:27;7.53;;;4.32;;
71513;SDS011;59335;46.652;21.272;2022-12-29T06:20:30;8.65;;;4.57;;
71513;SDS011;59335;46.652;21.272;2022-12-29T06:23:33;7.78;;;4.53;;
71513;SDS011;59335;46.652;21.272;2022-12-29T06:26:35;8.03;;;4.47;;
71513;SDS011;59335;46.652;21.272;2022-12-29T06:29:39;7.97;;;4.80;;
71513;SDS011;59335;46.652;21.272;2022-12-29T06:32:43;8.23;;;4.93;;
71513;SDS011;59335;46.652;21.272;2022-12-29T06:35:47;7.28;;;4.32;;
71513;SDS011;59335;46.652;21.272;2022-12-29T06:38:50;8.10;;;4.47;;
71513;SDS011;59335;46.652;21.272;2022-12-29T06:41:54;7.77;;;4.30;;
71513;SDS011;59335;46.652;21.272;2022-12-29T06:45:19;8.15;;;4.57;;
71513;SDS011;59335;46.652;21.272;2022-12-29T06:48:21;7.72;;;4.88;;
71513;SDS011;59335;46.652;21.272;2022-12-29T06:51:24;8.07;;;4.47;;
71513;SDS011;59335;46.652;21.272;2022-12-29T06:54:27;9.32;;;6.05;;
71513;SDS011;59335;46.652;21.272;2022-12-29T06:57:29;7.53;;;4.20;;
71513;SDS011;59335;46.652;21.272;2022-12-29T07:00:32;7.30;;;4.28;;
71513;SDS011;59335;46.652;21.272;2022-12-29T07:03:35;7.63;;;4.38;;
71513;SDS011;59335;46.652;21.272;2022-12-29T07:06:38;6.85;;;4.30;;
71513;SDS011;59335;46.652;21.272;2022-12-29T07:09:42;7.30;;;4.28;;
71513;SDS011;59335;46.652;21.272;2022-12-29T07:12:45;7.83;;;4.60;;
71513;SDS011;59335;46.652;21.272;2022-12-29T07:15:49;7.72;;;4.50;;
71513;SDS011;59335;46.652;21.272;2022-12-29T07:18:51;8.85;;;4.32;;
71513;SDS011;59335;46.652;21.272;2022-12-29T07:21:54;8.02;;;4.30;;
71513;SDS011;59335;46.652;21.272;2022-12-29T07:24:57;7.70;;;4.40;;
71513;SDS011;59335;46.652;21.272;2022-12-29T07:28:00;7.43;;;4.33;;
71513;SDS011;59335;46.652;21.272;2022-12-29T07:31:03;8.95;;;4.68;;
71513;SDS011;59335;46.652;21.272;2022-12-29T07:34:07;7.03;;;4.13;;
71513;SDS011;59335;46.652;21.272;2022-12-29T07:37:11;6.65;;;4.15;;
71513;SDS011;59335;46.652;21.272;2022-12-29T07:40:13;7.18;;;4.15;;
71513;SDS011;59335;46.652;21.272;2022-12-29T07:43:16;7.00;;;3.97;;
71513;SDS011;59335;46.652;21.272;2022-12-29T07:46:38;7.60;;;4.20;;
71513;SDS011;59335;46.652;21.272;2022-12-29T07:49:58;7.85;;;4.40;;
71513;SDS011;59335;46.652;21.272;2022-12-29T07:53:00;7.72;;;4.28;;
71513;SDS011;59335;46.652;21.272;2022-12-29T07:56:03;6.72;;;4.10;;
71513;SDS011;59335;46.652;21.272;2022-12-29T07:59:06;7.93;;;4.40;;
71513;SDS011;59335;46.652;21.272;2022-12-29T08:02:10;7.75;;;3.90;;
71513;SDS011;59335;46.652;21.272;2022-12-29T08:05:13;7.75;;;4.03;;
71513;SDS011;59335;46.652;21.272;2022-12-29T08:08:17;8.23;;;4.40;;
71513;SDS011;59335;46.652;21.272;2022-12-29T08:11:21;7.22;;;4.47;;
71513;SDS011;59335;46.652;21.272;2022-12-29T08:14:25;7.57;;;4.00;;
71513;SDS011;59335;46.652;21.272;2022-12-29T08:17:27;7.35;;;4.07;;
71513;SDS011;59335;46.652;21.272;2022-12-29T08:20:30;6.45;;;3.88;;
71513;SDS011;59335;46.652;21.272;2022-12-29T08:23:33;6.78;;;4.10;;
71513;SDS011;59335;46.652;21.272;2022-12-29T08:26:35;7.55;;;4.18;;
71513;SDS011;59335;46.652;21.272;2022-12-29T08:29:38;6.77;;;4.10;;
71513;SDS011;59335;46.652;21.272;2022-12-29T08:32:40;8.32;;;4.40;;
71513;SDS011;59335;46.652;21.272;2022-12-29T08:35:44;6.80;;;4.05;;
71513;SDS011;59335;46.652;21.272;2022-12-29T08:38:47;7.32;;;3.90;;
71513;SDS011;59335;46.652;21.272;2022-12-29T08:41:50;7.13;;;4.10;;
71513;SDS011;59335;46.652;21.272;2022-12-29T08:44:52;7.20;;;4.43;;
71513;SDS011;59335;46.652;21.272;2022-12-29T08:47:55;7.35;;;4.15;;
71513;SDS011;59335;46.652;21.272;2022-12-29T08:50:58;7.38;;;4.35;;
71513;SDS011;59335;46.652;21.272;2022-12-29T08:54:01;7.30;;;4.18;;
71513;SDS011;59335;46.652;21.272;2022-12-29T08:57:03;7.28;;;4.20;;
71513;SDS011;59335;46.652;21.272;2022-12-29T09:00:12;7.00;;;3.83;;
71513;SDS011;59335;46.652;21.272;2022-12-29T09:03:17;8.20;;;4.43;;
71513;SDS011;59335;46.652;21.272;2022-12-29T09:06:40;7.72;;;4.43;;
71513;SDS011;59335;46.652;21.272;2022-12-29T09:09:43;6.95;;;3.83;;
71513;SDS011;59335;46.652;21.272;2022-12-29T09:12:46;7.40;;;4.00;;
71513;SDS011;59335;46.652;21.272;2022-12-29T09:15:48;6.70;;;3.83;;
71513;SDS011;59335;46.652;21.272;2022-12-29T09:19:01;6.60;;;3.70;;
71513;SDS011;59335;46.652;21.272;2022-12-29T09:22:05;6.80;;;3.85;;
71513;SDS011;59335;46.652;21.272;2022-12-29T09:25:08;7.75;;;4.10;;
71513;SDS011;59335;46.652;21.272;2022-12-29T09:28:11;7.00;;;4.25;;
71513;SDS011;59335;46.652;21.272;2022-12-29T09:31:14;7.23;;;3.80;;
71513;SDS011;59335;46.652;21.272;2022-12-29T09:34:17;7.30;;;3.90;;
71513;SDS011;59335;46.652;21.272;2022-12-29T09:37:19;7.57;;;4.40;;
71513;SDS011;59335;46.652;21.272;2022-12-29T09:40:27;7.10;;;4.00;;
71513;SDS011;59335;46.652;21.272;2022-12-29T09:47:07;6.77;;;3.93;;
71513;SDS011;59335;46.652;21.272;2022-12-29T09:53:25;7.20;;;3.80;;
71513;SDS011;59335;46.652;21.272;2022-12-29T09:56:32;7.55;;;3.88;;
71513;SDS011;59335;46.652;21.272;2022-12-29T09:59:38;6.68;;;4.10;;
71513;SDS011;59335;46.652;21.272;2022-12-29T10:02:44;7.83;;;4.00;;
71513;SDS011;59335;46.652;21.272;2022-12-29T10:05:53;7.50;;;3.95;;
71513;SDS011;59335;46.652;21.272;2022-12-29T10:09:15;6.22;;;3.47;;
71513;SDS011;59335;46.652;21.272;2022-12-29T10:25:50;6.72;;;3.70;;
71513;SDS011;59335;46.652;21.272;2022-12-29T10:29:08;7.38;;;3.58;;
71513;SDS011;59335;46.652;21.272;2022-12-29T10:35:40;6.63;;;3.53;;
71513;SDS011;59335;46.652;21.272;2022-12-29T10:38:48;6.75;;;3.75;;
71513;SDS011;59335;46.652;21.272;2022-12-29T10:42:40;7.40;;;3.72;;
71513;SDS011;59335;46.652;21.272;2022-12-29T10:45:38;7.57;;;4.07;;
71513;SDS011;59335;46.652;21.272;2022-12-29T10:48:43;7.45;;;3.83;;
71513;SDS011;59335;46.652;21.272;2022-12-29T10:51:47;7.37;;;4.00;;
71513;SDS011;59335;46.652;21.272;2022-12-29T10:54:55;7.35;;;3.95;;
71513;SDS011;59335;46.652;21.272;2022-12-29T10:58:04;8.02;;;3.78;;
71513;SDS011;59335;46.652;21.272;2022-12-29T11:01:08;6.45;;;3.50;;
71513;SDS011;59335;46.652;21.272;2022-12-29T11:04:22;7.15;;;3.90;;
71513;SDS011;59335;46.652;21.272;2022-12-29T11:07:33;7.73;;;3.77;;
71513;SDS011;59335;46.652;21.272;2022-12-29T11:10:37;8.05;;;4.00;;
71513;SDS011;59335;46.652;21.272;2022-12-29T11:13:48;6.97;;;3.75;;
71513;SDS011;59335;46.652;21.272;2022-12-29T11:16:57;7.03;;;3.67;;
71513;SDS011;59335;46.652;21.272;2022-12-29T11:20:18;7.55;;;3.92;;
71513;SDS011;59335;46.652;21.272;2022-12-29T11:26:34;7.25;;;4.20;;
71513;SDS011;59335;46.652;21.272;2022-12-29T11:29:38;7.47;;;4.07;;
71513;SDS011;59335;46.652;21.272;2022-12-29T11:32:50;8.63;;;3.83;;
71513;SDS011;59335;46.652;21.272;2022-12-29T11:35:58;8.07;;;4.28;;
71513;SDS011;59335;46.652;21.272;2022-12-29T11:39:04;6.77;;;3.73;;
71513;SDS011;59335;46.652;21.272;2022-12-29T11:42:16;7.18;;;3.90;;
71513;SDS011;59335;46.652;21.272;2022-12-29T11:48:28;7.22;;;3.88;;
71513;SDS011;59335;46.652;21.272;2022-12-29T11:51:38;7.07;;;3.95;;
71513;SDS011;59335;46.652;21.272;2022-12-29T11:54:46;7.50;;;3.87;;
71513;SDS011;59335;46.652;21.272;2022-12-29T11:57:49;6.90;;;3.85;;
71513;SDS011;59335;46.652;21.272;2022-12-29T12:00:54;7.80;;;3.78;;
71513;SDS011;59335;46.652;21.272;2022-12-29T12:04:03;7.03;;;3.67;;
71513;SDS011;59335;46.652;21.272;2022-12-29T12:07:11;6.93;;;3.70;;
71513;SDS011;59335;46.652;21.272;2022-12-29T12:10:22;7.77;;;3.97;;
71513;SDS011;59335;46.652;21.272;2022-12-29T12:13:30;6.50;;;3.78;;
71513;SDS011;59335;46.652;21.272;2022-12-29T12:16:39;7.55;;;4.00;;
71513;SDS011;59335;46.652;21.272;2022-12-29T12:26:36;6.50;;;3.73;;
71513;SDS011;59335;46.652;21.272;2022-12-29T12:29:52;9.02;;;4.20;;
71513;SDS011;59335;46.652;21.272;2022-12-29T12:33:05;7.78;;;3.88;;
71513;SDS011;59335;46.652;21.272;2022-12-29T12:46:48;7.43;;;3.78;;
71513;SDS011;59335;46.652;21.272;2022-12-29T13:00:16;7.23;;;3.90;;
71513;SDS011;59335;46.652;21.272;2022-12-29T13:03:41;6.97;;;4.13;;
71513;SDS011;59335;46.652;21.272;2022-12-29T13:07:11;7.22;;;3.60;;
71513;SDS011;59335;46.652;21.272;2022-12-29T13:20:54;7.55;;;3.83;;
71513;SDS011;59335;46.652;21.272;2022-12-29T13:37:51;6.57;;;3.50;;
71513;SDS011;59335;46.652;21.272;2022-12-29T13:41:05;6.20;;;3.90;;
71513;SDS011;59335;46.652;21.272;2022-12-29T13:44:15;6.70;;;4.15;;
71513;SDS011;59335;46.652;21.272;2022-12-29T13:47:47;7.10;;;4.20;;
71513;SDS011;59335;46.652;21.272;2022-12-29T13:50:59;7.03;;;3.70;;
71513;SDS011;59335;46.652;21.272;2022-12-29T13:57:39;6.95;;;4.20;;
71513;SDS011;59335;46.652;21.272;2022-12-29T14:04:12;6.93;;;4.15;;
71513;SDS011;59335;46.652;21.272;2022-12-29T14:07:16;6.93;;;4.00;;
71513;SDS011;59335;46.652;21.272;2022-12-29T14:10:26;6.47;;;3.55;;
71513;SDS011;59335;46.652;21.272;2022-12-29T14:13:32;6.50;;;3.63;;
71513;SDS011;59335;46.652;21.272;2022-12-29T14:16:41;7.38;;;4.20;;
71513;SDS011;59335;46.652;21.272;2022-12-29T14:19:45;6.97;;;3.63;;
71513;SDS011;59335;46.652;21.272;2022-12-29T14:22:57;6.73;;;3.80;;
71513;SDS011;59335;46.652;21.272;2022-12-29T14:35:41;7.38;;;4.00;;
71513;SDS011;59335;46.652;21.272;2022-12-29T14:38:46;7.20;;;3.67;;
71513;SDS011;59335;46.652;21.272;2022-12-29T14:41:59;6.68;;;3.83;;
71513;SDS011;59335;46.652;21.272;2022-12-29T14:48:33;6.70;;;3.95;;
71513;SDS011;59335;46.652;21.272;2022-12-29T14:51:38;6.97;;;3.55;;
71513;SDS011;59335;46.652;21.272;2022-12-29T14:54:42;7.20;;;3.77;;
71513;SDS011;59335;46.652;21.272;2022-12-29T14:57:53;6.68;;;3.88;;
71513;SDS011;59335;46.652;21.272;2022-12-29T15:01:02;7.38;;;3.88;;
71513;SDS011;59335;46.652;21.272;2022-12-29T15:04:21;6.95;;;3.80;;
71513;SDS011;59335;46.652;21.272;2022-12-29T15:07:27;6.72;;;3.42;;
71513;SDS011;59335;46.652;21.272;2022-12-29T15:10:37;6.93;;;4.00;;
71513;SDS011;59335;46.652;21.272;2022-12-29T15:13:45;6.97;;;3.67;;
71513;SDS011;59335;46.652;21.272;2022-12-29T15:16:50;6.63;;;3.70;;
71513;SDS011;59335;46.652;21.272;2022-12-29T15:19:56;7.43;;;3.90;;
71513;SDS011;59335;46.652;21.272;2022-12-29T15:23:03;6.07;;;3.45;;
71513;SDS011;59335;46.652;21.272;2022-12-29T15:26:11;6.30;;;3.70;;
71513;SDS011;59335;46.652;21.272;2022-12-29T15:29:35;7.45;;;4.13;;
71513;SDS011;59335;46.652;21.272;2022-12-29T15:32:43;6.47;;;3.83;;
71513;SDS011;59335;46.652;21.272;2022-12-29T15:35:51;6.60;;;3.40;;
71513;SDS011;59335;46.652;21.272;2022-12-29T15:38:55;6.88;;;3.80;;
71513;SDS011;59335;46.652;21.272;2022-12-29T15:45:38;6.60;;;3.95;;
71513;SDS011;59335;46.652;21.272;2022-12-29T15:48:41;6.55;;;3.70;;
71513;SDS011;59335;46.652;21.272;2022-12-29T15:51:44;6.95;;;3.63;;
71513;SDS011;59335;46.652;21.272;2022-12-29T15:54:48;7.40;;;3.83;;
71513;SDS011;59335;46.652;21.272;2022-12-29T15:57:55;7.50;;;3.93;;
71513;SDS011;59335;46.652;21.272;2022-12-29T16:01:01;6.45;;;3.45;;
71513;SDS011;59335;46.652;21.272;2022-12-29T16:04:06;7.63;;;3.88;;
71513;SDS011;59335;46.652;21.272;2022-12-29T16:07:30;7.18;;;3.80;;
71513;SDS011;59335;46.652;21.272;2022-12-29T16:10:42;6.28;;;3.50;;
71513;SDS011;59335;46.652;21.272;2022-12-29T16:13:47;7.87;;;3.90;;
71513;SDS011;59335;46.652;21.272;2022-12-29T16:16:51;7.28;;;3.60;;
71513;SDS011;59335;46.652;21.272;2022-12-29T16:19:58;6.88;;;3.60;;
71513;SDS011;59335;46.652;21.272;2022-12-29T16:23:04;6.97;;;3.78;;
71513;SDS011;59335;46.652;21.272;2022-12-29T16:26:11;7.50;;;4.18;;
71513;SDS011;59335;46.652;21.272;2022-12-29T16:29:20;6.67;;;4.13;;
71513;SDS011;59335;46.652;21.272;2022-12-29T16:32:25;6.85;;;3.80;;
71513;SDS011;59335;46.652;21.272;2022-12-29T16:35:45;7.00;;;4.00;;
71513;SDS011;59335;46.652;21.272;2022-12-29T16:38:49;7.15;;;3.70;;
71513;SDS011;59335;46.652;21.272;2022-12-29T16:41:52;6.55;;;3.70;;
71513;SDS011;59335;46.652;21.272;2022-12-29T16:44:55;7.00;;;3.50;;
71513;SDS011;59335;46.652;21.272;2022-12-29T16:48:21;6.90;;;3.80;;
71513;SDS011;59335;46.652;21.272;2022-12-29T16:51:34;6.43;;;4.00;;
71513;SDS011;59335;46.652;21.272;2022-12-29T16:54:38;6.68;;;3.70;;
71513;SDS011;59335;46.652;21.272;2022-12-29T16:57:42;7.55;;;4.03;;
71513;SDS011;59335;46.652;21.272;2022-12-29T17:00:49;7.70;;;4.00;;
71513;SDS011;59335;46.652;21.272;2022-12-29T17:03:57;7.05;;;4.07;;
71513;SDS011;59335;46.652;21.272;2022-12-29T17:07:12;6.75;;;4.00;;
71513;SDS011;59335;46.652;21.272;2022-12-29T17:10:19;7.40;;;4.07;;
71513;SDS011;59335;46.652;21.272;2022-12-29T17:13:22;7.85;;;3.90;;
71513;SDS011;59335;46.652;21.272;2022-12-29T17:16:24;7.90;;;4.27;;
71513;SDS011;59335;46.652;21.272;2022-12-29T17:19:31;6.47;;;3.83;;
71513;SDS011;59335;46.652;21.272;2022-12-29T17:22:36;6.80;;;3.90;;
71513;SDS011;59335;46.652;21.272;2022-12-29T17:25:38;7.95;;;4.30;;
71513;SDS011;59335;46.652;21.272;2022-12-29T17:28:41;6.97;;;4.03;;
71513;SDS011;59335;46.652;21.272;2022-12-29T17:31:44;7.70;;;4.20;;
71513;SDS011;59335;46.652;21.272;2022-12-29T17:34:46;7.80;;;4.13;;
71513;SDS011;59335;46.652;21.272;2022-12-29T17:37:50;6.88;;;3.92;;
71513;SDS011;59335;46.652;21.272;2022-12-29T17:40:54;8.05;;;4.38;;
71513;SDS011;59335;46.652;21.272;2022-12-29T17:43:57;7.57;;;4.03;;
71513;SDS011;59335;46.652;21.272;2022-12-29T17:47:01;6.87;;;3.83;;
71513;SDS011;59335;46.652;21.272;2022-12-29T17:50:04;7.22;;;3.92;;
71513;SDS011;59335;46.652;21.272;2022-12-29T17:53:11;6.88;;;4.22;;
71513;SDS011;59335;46.652;21.272;2022-12-29T17:56:17;7.97;;;4.35;;
71513;SDS011;59335;46.652;21.272;2022-12-29T17:59:20;6.60;;;3.70;;
71513;SDS011;59335;46.652;21.272;2022-12-29T18:05:29;8.05;;;4.30;;
71513;SDS011;59335;46.652;21.272;2022-12-29T18:08:35;7.88;;;4.28;;
71513;SDS011;59335;46.652;21.272;2022-12-29T18:11:41;6.82;;;3.80;;
71513;SDS011;59335;46.652;21.272;2022-12-29T18:14:45;7.10;;;4.00;;
71513;SDS011;59335;46.652;21.272;2022-12-29T18:17:48;7.40;;;4.13;;
71513;SDS011;59335;46.652;21.272;2022-12-29T18:20:52;6.85;;;4.25;;
71513;SDS011;59335;46.652;21.272;2022-12-29T18:23:57;8.23;;;3.90;;
71513;SDS011;59335;46.652;21.272;2022-12-29T18:27:00;6.93;;;3.83;;
71513;SDS011;59335;46.652;21.272;2022-12-29T18:30:11;7.10;;;4.10;;
71513;SDS011;59335;46.652;21.272;2022-12-29T18:33:14;7.20;;;4.13;;
71513;SDS011;59335;46.652;21.272;2022-12-29T18:36:25;6.82;;;3.95;;
71513;SDS011;59335;46.652;21.272;2022-12-29T18:39:29;7.63;;;4.05;;
71513;SDS011;59335;46.652;21.272;2022-12-29T18:42:32;7.05;;;4.25;;
71513;SDS011;59335;46.652;21.272;2022-12-29T18:45:34;7.18;;;3.97;;
71513;SDS011;59335;46.652;21.272;2022-12-29T18:48:38;7.13;;;4.27;;
71513;SDS011;59335;46.652;21.272;2022-12-29T18:51:42;7.50;;;3.92;;
71513;SDS011;59335;46.652;21.272;2022-12-29T18:54:45;7.53;;;4.18;;
71513;SDS011;59335;46.652;21.272;2022-12-29T18:57:48;7.05;;;3.85;;
71513;SDS011;59335;46.652;21.272;2022-12-29T19:00:51;7.78;;;4.70;;
71513;SDS011;59335;46.652;21.272;2022-12-29T19:03:55;6.70;;;4.07;;
71513;SDS011;59335;46.652;21.272;2022-12-29T19:06:58;7.90;;;4.03;;
71513;SDS011;59335;46.652;21.272;2022-12-29T19:10:01;6.90;;;4.00;;
71513;SDS011;59335;46.652;21.272;2022-12-29T19:13:04;7.55;;;4.10;;
71513;SDS011;59335;46.652;21.272;2022-12-29T19:16:10;6.85;;;4.25;;
71513;SDS011;59335;46.652;21.272;2022-12-29T19:19:20;7.70;;;4.73;;
71513;SDS011;59335;46.652;21.272;2022-12-29T19:22:22;8.95;;;4.32;;
71513;SDS011;59335;46.652;21.272;2022-12-29T19:25:25;7.80;;;4.47;;
71513;SDS011;59335;46.652;21.272;2022-12-29T19:28:28;7.60;;;4.10;;
71513;SDS011;59335;46.652;21.272;2022-12-29T19:31:31;6.90;;;4.25;;
71513;SDS011;59335;46.652;21.272;2022-12-29T19:34:34;7.50;;;4.20;;
71513;SDS011;59335;46.652;21.272;2022-12-29T19:37:37;7.50;;;4.50;;
71513;SDS011;59335;46.652;21.272;2022-12-29T19:40:45;7.82;;;4.10;;
71513;SDS011;59335;46.652;21.272;2022-12-29T19:43:50;7.50;;;4.15;;
71513;SDS011;59335;46.652;21.272;2022-12-29T19:46:53;6.88;;;4.15;;
71513;SDS011;59335;46.652;21.272;2022-12-29T19:49:56;7.77;;;4.10;;
71513;SDS011;59335;46.652;21.272;2022-12-29T19:52:59;6.43;;;4.15;;
71513;SDS011;59335;46.652;21.272;2022-12-29T19:56:07;7.90;;;4.30;;
71513;SDS011;59335;46.652;21.272;2022-12-29T19:59:10;6.53;;;4.10;;
71513;SDS011;59335;46.652;21.272;2022-12-29T20:02:21;7.47;;;4.20;;
71513;SDS011;59335;46.652;21.272;2022-12-29T20:05:26;7.83;;;4.70;;
71513;SDS011;59335;46.652;21.272;2022-12-29T20:08:29;6.60;;;3.83;;
71513;SDS011;59335;46.652;21.272;2022-12-29T20:11:32;7.88;;;4.50;;
71513;SDS011;59335;46.652;21.272;2022-12-29T20:14:36;7.82;;;3.95;;
71513;SDS011;59335;46.652;21.272;2022-12-29T20:17:40;7.20;;;4.10;;
71513;SDS011;59335;46.652;21.272;2022-12-29T20:21:06;7.30;;;4.10;;
71513;SDS011;59335;46.652;21.272;2022-12-29T20:24:10;7.43;;;4.15;;
71513;SDS011;59335;46.652;21.272;2022-12-29T20:27:14;7.45;;;3.97;;
71513;SDS011;59335;46.652;21.272;2022-12-29T20:30:17;6.70;;;4.07;;
71513;SDS011;59335;46.652;21.272;2022-12-29T20:33:20;7.13;;;4.05;;
71513;SDS011;59335;46.652;21.272;2022-12-29T20:36:25;7.03;;;4.30;;
71513;SDS011;59335;46.652;21.272;2022-12-29T20:39:29;7.15;;;4.35;;
71513;SDS011;59335;46.652;21.272;2022-12-29T20:42:35;6.97;;;4.57;;
71513;SDS011;59335;46.652;21.272;2022-12-29T20:45:38;7.35;;;4.22;;
71513;SDS011;59335;46.652;21.272;2022-12-29T20:48:41;7.63;;;4.43;;
71513;SDS011;59335;46.652;21.272;2022-12-29T20:51:44;7.77;;;4.50;;
71513;SDS011;59335;46.652;21.272;2022-12-29T20:55:08;7.60;;;4.38;;
71513;SDS011;59335;46.652;21.272;2022-12-29T20:58:10;8.82;;;4.50;;
71513;SDS011;59335;46.652;21.272;2022-12-29T21:01:29;6.85;;;4.00;;